sensor_id;sensor_type;location;lat;lon;timestamp;pressure;altitude;pressure_sealevel;temperature;humidity
27334;BME280;14817;57.104;-2.094;2023-09-08T00:02:27;100493.28;;;17.13;100.00
27334;BME280;14817;57.104;-2.094;2023-09-08T00:04:58;100509.75;;;17.19;100.00
27334;BME280;14817;57.104;-2.094;2023-09-08T00:07:25;100523.69;;;17.16;100.00
27334;BME280;14817;57.104;-2.094;2023-09-08T00:09:52;100518.94;;;17.18;100.00
27334;BME280;14817;57.104;-2.094;2023-09-08T00:12:19;100525.41;;;17.23;100.00
27334;BME280;14817;57.104;-2.094;2023-09-08T00:14:45;100521.03;;;17.22;100.00
27334;BME280;14817;57.104;-2.094;2023-09-08T00:17:12;100510.16;;;17.16;100.00
27334;BME280;14817;57.104;-2.094;2023-09-08T00:19:39;100497.69;;;17.21;100.00
27334;BME280;14817;57.104;-2.094;2023-09-08T00:22:06;100486.97;;;17.34;100.00
27334;BME280;14817;57.104;-2.094;2023-09-08T00:24:33;100487.44;;;17.45;100.00
27334;BME280;14817;57.104;-2.094;2023-09-08T00:27:00;100497.00;;;17.41;100.00
27334;BME280;14817;57.104;-2.094;2023-09-08T00:29:27;100492.47;;;17.48;100.00
27334;BME280;14817;57.104;-2.094;2023-09-08T00:31:54;100498.50;;;17.43;100.00
27334;BME280;14817;57.104;-2.094;2023-09-08T00:34:21;100509.53;;;17.42;100.00
27334;BME280;14817;57.104;-2.094;2023-09-08T00:36:48;100512.03;;;17.43;100.00
27334;BME280;14817;57.104;-2.094;2023-09-08T00:39:15;100514.78;;;17.50;100.00
27334;BME280;14817;57.104;-2.094;2023-09-08T00:41:41;100513.13;;;17.55;100.00
27334;BME280;14817;57.104;-2.094;2023-09-08T00:44:08;100507.38;;;17.65;100.00
27334;BME280;14817;57.104;-2.094;2023-09-08T00:46:35;100502.00;;;17.37;100.00
27334;BME280;14817;57.104;-2.094;2023-09-08T00:49:02;100496.22;;;17.47;100.00
27334;BME280;14817;57.104;-2.094;2023-09-08T00:51:29;100498.56;;;17.57;100.00
27334;BME280;14817;57.104;-2.094;2023-09-08T00:53:56;100494.03;;;17.64;100.00
27334;BME280;14817;57.104;-2.094;2023-09-08T00:56:23;100493.19;;;17.63;100.00
27334;BME280;14817;57.104;-2.094;2023-09-08T00:58:50;100503.38;;;17.61;100.00
27334;BME280;14817;57.104;-2.094;2023-09-08T01:01:17;100494.28;;;17.69;100.00
27334;BME280;14817;57.104;-2.094;2023-09-08T01:03:44;100501.19;;;17.78;100.00
27334;BME280;14817;57.104;-2.094;2023-09-08T01:06:11;100499.31;;;17.79;100.00
27334;BME280;14817;57.104;-2.094;2023-09-08T01:08:38;100480.63;;;17.84;100.00
27334;BME280;14817;57.104;-2.094;2023-09-08T01:11:05;100471.50;;;17.98;100.00
27334;BME280;14817;57.104;-2.094;2023-09-08T01:13:33;100473.59;;;18.03;100.00
27334;BME280;14817;57.104;-2.094;2023-09-08T01:16:01;100485.69;;;18.00;100.00
27334;BME280;14817;57.104;-2.094;2023-09-08T01:18:27;100490.69;;;17.97;100.00
27334;BME280;14817;57.104;-2.094;2023-09-08T01:21:58;100477.38;;;18.02;100.00
27334;BME280;14817;57.104;-2.094;2023-09-08T01:26:37;100465.69;;;18.01;100.00
27334;BME280;14817;57.104;-2.094;2023-09-08T01:29:08;100472.56;;;17.97;100.00
27334;BME280;14817;57.104;-2.094;2023-09-08T01:31:36;100466.44;;;17.82;100.00
27334;BME280;14817;57.104;-2.094;2023-09-08T01:34:04;100457.66;;;17.80;100.00
27334;BME280;14817;57.104;-2.094;2023-09-08T01:36:34;100448.13;;;17.84;100.00
27334;BME280;14817;57.104;-2.094;2023-09-08T01:39:03;100459.16;;;17.82;100.00
27334;BME280;14817;57.104;-2.094;2023-09-08T01:41:30;100457.81;;;17.71;100.00
27334;BME280;14817;57.104;-2.094;2023-09-08T01:43:59;100465.94;;;17.65;100.00
27334;BME280;14817;57.104;-2.094;2023-09-08T01:46:26;100460.09;;;17.68;100.00
27334;BME280;14817;57.104;-2.094;2023-09-08T01:48:52;100462.16;;;17.66;100.00
27334;BME280;14817;57.104;-2.094;2023-09-08T01:51:19;100462.97;;;17.60;100.00
27334;BME280;14817;57.104;-2.094;2023-09-08T01:53:46;100475.00;;;17.50;100.00
27334;BME280;14817;57.104;-2.094;2023-09-08T01:56:12;100468.72;;;17.43;100.00
27334;BME280;14817;57.104;-2.094;2023-09-08T01:58:39;100462.03;;;17.39;100.00
27334;BME280;14817;57.104;-2.094;2023-09-08T02:01:06;100454.72;;;17.40;100.00
27334;BME280;14817;57.104;-2.094;2023-09-08T02:03:34;100450.75;;;17.35;100.00
27334;BME280;14817;57.104;-2.094;2023-09-08T02:06:01;100440.78;;;17.43;100.00
27334;BME280;14817;57.104;-2.094;2023-09-08T02:08:27;100435.38;;;17.43;100.00
27334;BME280;14817;57.104;-2.094;2023-09-08T02:10:54;100443.50;;;17.43;100.00
27334;BME280;14817;57.104;-2.094;2023-09-08T02:13:21;100444.97;;;17.45;100.00
27334;BME280;14817;57.104;-2.094;2023-09-08T02:15:48;100439.34;;;17.47;100.00
27334;BME280;14817;57.104;-2.094;2023-09-08T02:18:15;100435.03;;;17.52;100.00
27334;BME280;14817;57.104;-2.094;2023-09-08T02:20:42;100441.25;;;17.53;100.00
27334;BME280;14817;57.104;-2.094;2023-09-08T02:23:08;100440.56;;;17.38;100.00
27334;BME280;14817;57.104;-2.094;2023-09-08T02:25:35;100443.09;;;17.46;100.00
27334;BME280;14817;57.104;-2.094;2023-09-08T02:28:03;100435.38;;;17.43;100.00
27334;BME280;14817;57.104;-2.094;2023-09-08T02:30:30;100431.88;;;17.49;100.00
27334;BME280;14817;57.104;-2.094;2023-09-08T02:32:59;100424.16;;;17.46;100.00
27334;BME280;14817;57.104;-2.094;2023-09-08T02:35:25;100414.59;;;17.50;100.00
27334;BME280;14817;57.104;-2.094;2023-09-08T02:37:54;100411.25;;;17.48;100.00
27334;BME280;14817;57.104;-2.094;2023-09-08T02:40:21;100403.31;;;17.46;100.00
27334;BME280;14817;57.104;-2.094;2023-09-08T02:42:49;100409.19;;;17.50;100.00
27334;BME280;14817;57.104;-2.094;2023-09-08T02:45:16;100401.84;;;17.44;100.00
27334;BME280;14817;57.104;-2.094;2023-09-08T02:47:42;100400.66;;;17.53;100.00
27334;BME280;14817;57.104;-2.094;2023-09-08T02:50:09;100399.41;;;17.55;100.00
27334;BME280;14817;57.104;-2.094;2023-09-08T02:52:36;100399.19;;;17.50;100.00
27334;BME280;14817;57.104;-2.094;2023-09-08T02:55:03;100394.22;;;17.54;100.00
27334;BME280;14817;57.104;-2.094;2023-09-08T02:57:30;100391.69;;;17.52;100.00
27334;BME280;14817;57.104;-2.094;2023-09-08T02:59:57;100388.78;;;17.54;100.00
27334;BME280;14817;57.104;-2.094;2023-09-08T03:02:24;100394.59;;;17.51;100.00
27334;BME280;14817;57.104;-2.094;2023-09-08T03:04:51;100391.03;;;17.44;100.00
27334;BME280;14817;57.104;-2.094;2023-09-08T03:07:18;100392.47;;;17.40;100.00
27334;BME280;14817;57.104;-2.094;2023-09-08T03:09:45;100400.78;;;17.38;100.00
27334;BME280;14817;57.104;-2.094;2023-09-08T03:12:12;100402.66;;;17.38;100.00
27334;BME280;14817;57.104;-2.094;2023-09-08T03:14:39;100396.00;;;17.40;100.00
27334;BME280;14817;57.104;-2.094;2023-09-08T03:17:06;100397.25;;;17.38;100.00
27334;BME280;14817;57.104;-2.094;2023-09-08T03:19:33;100396.00;;;17.40;100.00
27334;BME280;14817;57.104;-2.094;2023-09-08T03:22:00;100395.56;;;17.37;100.00
27334;BME280;14817;57.104;-2.094;2023-09-08T03:24:26;100386.59;;;17.36;100.00
27334;BME280;14817;57.104;-2.094;2023-09-08T03:26:53;100400.56;;;17.33;100.00
27334;BME280;14817;57.104;-2.094;2023-09-08T03:29:21;100398.91;;;17.39;100.00
27334;BME280;14817;57.104;-2.094;2023-09-08T03:31:47;100404.53;;;17.37;100.00
27334;BME280;14817;57.104;-2.094;2023-09-08T03:34:15;100398.25;;;17.37;100.00
27334;BME280;14817;57.104;-2.094;2023-09-08T03:36:43;100407.06;;;17.45;100.00
27334;BME280;14817;57.104;-2.094;2023-09-08T03:39:10;100395.41;;;17.45;100.00
27334;BME280;14817;57.104;-2.094;2023-09-08T03:41:37;100403.94;;;17.42;100.00
27334;BME280;14817;57.104;-2.094;2023-09-08T03:44:03;100411.38;;;17.33;100.00
27334;BME280;14817;57.104;-2.094;2023-09-08T03:46:30;100408.56;;;17.20;100.00
27334;BME280;14817;57.104;-2.094;2023-09-08T03:48:57;100424.38;;;17.16;100.00
27334;BME280;14817;57.104;-2.094;2023-09-08T03:51:27;100420.00;;;17.15;100.00
27334;BME280;14817;57.104;-2.094;2023-09-08T03:53:54;100423.75;;;17.14;100.00
27334;BME280;14817;57.104;-2.094;2023-09-08T03:56:21;100421.50;;;17.18;100.00
27334;BME280;14817;57.104;-2.094;2023-09-08T03:58:48;100417.94;;;17.17;100.00
27334;BME280;14817;57.104;-2.094;2023-09-08T04:01:15;100416.66;;;17.13;100.00
27334;BME280;14817;57.104;-2.094;2023-09-08T04:03:42;100397.59;;;17.28;100.00
27334;BME280;14817;57.104;-2.094;2023-09-08T04:06:10;100382.44;;;17.33;100.00
27334;BME280;14817;57.104;-2.094;2023-09-08T04:08:37;100376.41;;;17.38;100.00
27334;BME280;14817;57.104;-2.094;2023-09-08T04:11:04;100372.84;;;17.31;100.00
27334;BME280;14817;57.104;-2.094;2023-09-08T04:13:31;100361.78;;;17.26;100.00
27334;BME280;14817;57.104;-2.094;2023-09-08T04:15:59;100357.38;;;17.18;100.00
27334;BME280;14817;57.104;-2.094;2023-09-08T04:18:26;100354.22;;;17.14;100.00
27334;BME280;14817;57.104;-2.094;2023-09-08T04:20:53;100347.78;;;17.16;100.00
27334;BME280;14817;57.104;-2.094;2023-09-08T04:23:19;100351.44;;;17.01;100.00
27334;BME280;14817;57.104;-2.094;2023-09-08T04:25:46;100342.41;;;16.87;100.00
27334;BME280;14817;57.104;-2.094;2023-09-08T04:28:13;100331.69;;;17.01;100.00
27334;BME280;14817;57.104;-2.094;2023-09-08T04:30:39;100332.88;;;16.98;100.00
27334;BME280;14817;57.104;-2.094;2023-09-08T04:33:06;100319.38;;;16.98;100.00
27334;BME280;14817;57.104;-2.094;2023-09-08T04:35:33;100318.53;;;16.98;100.00
27334;BME280;14817;57.104;-2.094;2023-09-08T04:38:00;100328.09;;;16.93;100.00
27334;BME280;14817;57.104;-2.094;2023-09-08T04:40:30;100322.66;;;16.93;100.00
27334;BME280;14817;57.104;-2.094;2023-09-08T04:42:56;100322.44;;;16.88;100.00
27334;BME280;14817;57.104;-2.094;2023-09-08T04:45:23;100320.56;;;16.89;100.00
27334;BME280;14817;57.104;-2.094;2023-09-08T04:47:50;100324.34;;;16.94;100.00
27334;BME280;14817;57.104;-2.094;2023-09-08T04:50:18;100324.31;;;16.88;100.00
27334;BME280;14817;57.104;-2.094;2023-09-08T04:52:45;100322.63;;;16.87;100.00
27334;BME280;14817;57.104;-2.094;2023-09-08T04:55:12;100330.59;;;16.95;100.00
27334;BME280;14817;57.104;-2.094;2023-09-08T04:57:39;100333.75;;;16.99;100.00
27334;BME280;14817;57.104;-2.094;2023-09-08T05:00:07;100337.72;;;17.03;100.00
27334;BME280;14817;57.104;-2.094;2023-09-08T05:02:34;100337.75;;;17.09;100.00
27334;BME280;14817;57.104;-2.094;2023-09-08T05:05:02;100336.06;;;17.08;100.00
27334;BME280;14817;57.104;-2.094;2023-09-08T05:07:30;100336.34;;;17.13;100.00
27334;BME280;14817;57.104;-2.094;2023-09-08T05:09:57;100334.44;;;17.14;100.00
27334;BME280;14817;57.104;-2.094;2023-09-08T05:12:27;100338.59;;;17.10;100.00
27334;BME280;14817;57.104;-2.094;2023-09-08T05:14:54;100343.22;;;17.16;100.00
27334;BME280;14817;57.104;-2.094;2023-09-08T05:17:26;100335.31;;;17.21;100.00
27334;BME280;14817;57.104;-2.094;2023-09-08T05:19:53;100330.78;;;17.28;100.00
27334;BME280;14817;57.104;-2.094;2023-09-08T05:22:20;100327.03;;;17.29;100.00
27334;BME280;14817;57.104;-2.094;2023-09-08T05:24:48;100324.53;;;17.34;100.00
27334;BME280;14817;57.104;-2.094;2023-09-08T05:27:15;100318.75;;;17.38;100.00
27334;BME280;14817;57.104;-2.094;2023-09-08T05:29:41;100322.06;;;17.40;100.00
27334;BME280;14817;57.104;-2.094;2023-09-08T05:32:08;100327.94;;;17.43;100.00
27334;BME280;14817;57.104;-2.094;2023-09-08T05:34:37;100327.06;;;17.43;100.00
27334;BME280;14817;57.104;-2.094;2023-09-08T05:37:04;100326.06;;;17.44;100.00
27334;BME280;14817;57.104;-2.094;2023-09-08T05:39:32;100320.03;;;17.48;100.00
27334;BME280;14817;57.104;-2.094;2023-09-08T05:41:59;100324.81;;;17.46;100.00
27334;BME280;14817;57.104;-2.094;2023-09-08T05:44:26;100336.59;;;17.32;100.00
27334;BME280;14817;57.104;-2.094;2023-09-08T05:46:53;100342.50;;;17.42;100.00
27334;BME280;14817;57.104;-2.094;2023-09-08T05:49:22;100327.31;;;17.48;100.00
27334;BME280;14817;57.104;-2.094;2023-09-08T05:51:49;100330.44;;;17.51;100.00
27334;BME280;14817;57.104;-2.094;2023-09-08T05:54:16;100339.38;;;17.45;100.00
27334;BME280;14817;57.104;-2.094;2023-09-08T05:56:43;100333.72;;;17.40;100.00
27334;BME280;14817;57.104;-2.094;2023-09-08T05:59:11;100329.00;;;17.55;100.00
27334;BME280;14817;57.104;-2.094;2023-09-08T06:01:38;100332.16;;;17.59;100.00
27334;BME280;14817;57.104;-2.094;2023-09-08T06:04:07;100330.06;;;17.61;100.00
27334;BME280;14817;57.104;-2.094;2023-09-08T06:06:34;100330.09;;;17.68;100.00
27334;BME280;14817;57.104;-2.094;2023-09-08T06:09:01;100327.59;;;17.73;100.00
27334;BME280;14817;57.104;-2.094;2023-09-08T06:11:28;100330.28;;;17.66;100.00
27334;BME280;14817;57.104;-2.094;2023-09-08T06:13:55;100332.19;;;17.72;100.00
27334;BME280;14817;57.104;-2.094;2023-09-08T06:16:29;100334.47;;;17.69;100.00
27334;BME280;14817;57.104;-2.094;2023-09-08T06:18:55;100339.75;;;17.84;100.00
27334;BME280;14817;57.104;-2.094;2023-09-08T06:21:22;100338.34;;;18.28;100.00
27334;BME280;14817;57.104;-2.094;2023-09-08T06:23:49;100335.00;;;18.32;100.00
27334;BME280;14817;57.104;-2.094;2023-09-08T06:26:17;100345.47;;;18.82;100.00
27334;BME280;14817;57.104;-2.094;2023-09-08T06:28:45;100369.84;;;19.02;100.00
27334;BME280;14817;57.104;-2.094;2023-09-08T06:31:12;100396.13;;;19.22;100.00
27334;BME280;14817;57.104;-2.094;2023-09-08T06:33:40;100416.72;;;19.56;100.00
27334;BME280;14817;57.104;-2.094;2023-09-08T06:36:07;100437.41;;;19.57;100.00
27334;BME280;14817;57.104;-2.094;2023-09-08T06:38:34;100450.44;;;20.00;100.00
27334;BME280;14817;57.104;-2.094;2023-09-08T06:41:08;100461.41;;;19.60;100.00
27334;BME280;14817;57.104;-2.094;2023-09-08T06:43:35;100465.94;;;20.38;100.00
27334;BME280;14817;57.104;-2.094;2023-09-08T06:46:07;100481.97;;;20.85;100.00
27334;BME280;14817;57.104;-2.094;2023-09-08T06:48:34;100495.28;;;20.93;100.00
27334;BME280;14817;57.104;-2.094;2023-09-08T06:51:02;100494.56;;;21.54;100.00
27334;BME280;14817;57.104;-2.094;2023-09-08T06:53:29;100499.50;;;21.64;100.00
27334;BME280;14817;57.104;-2.094;2023-09-08T06:55:57;100516.00;;;21.69;100.00
27334;BME280;14817;57.104;-2.094;2023-09-08T06:58:24;100520.88;;;21.86;100.00
27334;BME280;14817;57.104;-2.094;2023-09-08T07:00:51;100521.41;;;22.13;100.00
27334;BME280;14817;57.104;-2.094;2023-09-08T07:03:22;100522.19;;;22.50;100.00
27334;BME280;14817;57.104;-2.094;2023-09-08T07:05:50;100518.31;;;22.58;100.00
27334;BME280;14817;57.104;-2.094;2023-09-08T07:08:17;100520.25;;;21.84;100.00
27334;BME280;14817;57.104;-2.094;2023-09-08T07:10:45;100510.25;;;21.77;100.00
27334;BME280;14817;57.104;-2.094;2023-09-08T07:13:12;100519.91;;;21.55;100.00
27334;BME280;14817;57.104;-2.094;2023-09-08T07:15:39;100514.25;;;22.12;100.00
27334;BME280;14817;57.104;-2.094;2023-09-08T07:18:06;100518.38;;;22.81;100.00
27334;BME280;14817;57.104;-2.094;2023-09-08T07:20:32;100520.75;;;23.43;100.00
27334;BME280;14817;57.104;-2.094;2023-09-08T07:23:00;100526.72;;;22.98;100.00
27334;BME280;14817;57.104;-2.094;2023-09-08T07:25:27;100516.56;;;23.53;100.00
27334;BME280;14817;57.104;-2.094;2023-09-08T07:27:54;100524.56;;;22.89;100.00
27334;BME280;14817;57.104;-2.094;2023-09-08T07:30:22;100530.06;;;22.58;100.00
27334;BME280;14817;57.104;-2.094;2023-09-08T07:32:49;100536.84;;;22.68;100.00
27334;BME280;14817;57.104;-2.094;2023-09-08T07:35:16;100532.97;;;23.17;100.00
27334;BME280;14817;57.104;-2.094;2023-09-08T07:37:44;100543.34;;;23.39;100.00
27334;BME280;14817;57.104;-2.094;2023-09-08T07:40:12;100541.06;;;23.24;100.00
27334;BME280;14817;57.104;-2.094;2023-09-08T07:42:39;100536.44;;;23.60;100.00
27334;BME280;14817;57.104;-2.094;2023-09-08T07:45:06;100540.34;;;23.64;100.00
27334;BME280;14817;57.104;-2.094;2023-09-08T07:47:33;100538.94;;;23.85;100.00
27334;BME280;14817;57.104;-2.094;2023-09-08T07:50:19;100548.78;;;23.98;100.00
27334;BME280;14817;57.104;-2.094;2023-09-08T07:52:47;100540.94;;;23.66;100.00
27334;BME280;14817;57.104;-2.094;2023-09-08T07:55:14;100533.22;;;23.98;100.00
27334;BME280;14817;57.104;-2.094;2023-09-08T07:57:44;100532.44;;;24.55;100.00
27334;BME280;14817;57.104;-2.094;2023-09-08T08:00:12;100533.63;;;24.59;100.00
27334;BME280;14817;57.104;-2.094;2023-09-08T08:02:41;100536.91;;;24.73;100.00
27334;BME280;14817;57.104;-2.094;2023-09-08T08:05:08;100541.13;;;25.43;100.00
27334;BME280;14817;57.104;-2.094;2023-09-08T08:07:35;100541.56;;;25.74;100.00
27334;BME280;14817;57.104;-2.094;2023-09-08T08:10:02;100537.28;;;25.61;100.00
27334;BME280;14817;57.104;-2.094;2023-09-08T08:12:29;100543.16;;;25.02;100.00
27334;BME280;14817;57.104;-2.094;2023-09-08T08:14:56;100530.09;;;26.16;100.00
27334;BME280;14817;57.104;-2.094;2023-09-08T08:17:22;100528.50;;;25.25;100.00
27334;BME280;14817;57.104;-2.094;2023-09-08T08:19:49;100526.41;;;25.16;100.00
27334;BME280;14817;57.104;-2.094;2023-09-08T08:22:16;100523.72;;;25.72;100.00
27334;BME280;14817;57.104;-2.094;2023-09-08T08:24:43;100526.47;;;25.04;100.00
27334;BME280;14817;57.104;-2.094;2023-09-08T08:27:10;100527.00;;;26.35;100.00
27334;BME280;14817;57.104;-2.094;2023-09-08T08:29:37;100531.31;;;25.86;100.00
27334;BME280;14817;57.104;-2.094;2023-09-08T08:32:03;100522.81;;;26.54;100.00
27334;BME280;14817;57.104;-2.094;2023-09-08T08:34:30;100521.69;;;26.50;100.00
27334;BME280;14817;57.104;-2.094;2023-09-08T08:36:57;100525.13;;;27.22;100.00
27334;BME280;14817;57.104;-2.094;2023-09-08T08:39:23;100520.59;;;27.80;100.00
27334;BME280;14817;57.104;-2.094;2023-09-08T08:41:50;100524.81;;;27.56;100.00
27334;BME280;14817;57.104;-2.094;2023-09-08T08:44:17;100521.25;;;28.03;100.00
27334;BME280;14817;57.104;-2.094;2023-09-08T08:46:44;100525.94;;;27.55;100.00
27334;BME280;14817;57.104;-2.094;2023-09-08T08:49:12;100526.59;;;27.72;100.00
27334;BME280;14817;57.104;-2.094;2023-09-08T08:51:42;100516.75;;;27.44;100.00
27334;BME280;14817;57.104;-2.094;2023-09-08T08:54:11;100533.81;;;27.08;100.00
27334;BME280;14817;57.104;-2.094;2023-09-08T08:56:39;100528.91;;;26.83;100.00
27334;BME280;14817;57.104;-2.094;2023-09-08T08:59:06;100527.97;;;27.00;100.00
27334;BME280;14817;57.104;-2.094;2023-09-08T09:01:33;100533.81;;;27.41;100.00
27334;BME280;14817;57.104;-2.094;2023-09-08T09:04:00;100533.97;;;27.24;100.00
27334;BME280;14817;57.104;-2.094;2023-09-08T09:06:27;100543.44;;;26.79;100.00
27334;BME280;14817;57.104;-2.094;2023-09-08T09:08:54;100538.63;;;26.96;100.00
27334;BME280;14817;57.104;-2.094;2023-09-08T09:11:20;100532.50;;;27.91;100.00
27334;BME280;14817;57.104;-2.094;2023-09-08T09:13:47;100533.66;;;28.05;100.00
27334;BME280;14817;57.104;-2.094;2023-09-08T09:16:14;100542.78;;;27.31;100.00
27334;BME280;14817;57.104;-2.094;2023-09-08T09:18:53;100545.41;;;27.16;100.00
27334;BME280;14817;57.104;-2.094;2023-09-08T09:21:21;100532.81;;;28.00;100.00
27334;BME280;14817;57.104;-2.094;2023-09-08T09:23:48;100531.28;;;28.40;100.00
27334;BME280;14817;57.104;-2.094;2023-09-08T09:26:24;100535.63;;;28.20;100.00
27334;BME280;14817;57.104;-2.094;2023-09-08T09:28:51;100535.84;;;29.02;100.00
27334;BME280;14817;57.104;-2.094;2023-09-08T09:31:23;100529.53;;;29.12;100.00
27334;BME280;14817;57.104;-2.094;2023-09-08T09:34:02;100529.75;;;28.80;100.00
27334;BME280;14817;57.104;-2.094;2023-09-08T09:36:31;100530.88;;;30.41;100.00
27334;BME280;14817;57.104;-2.094;2023-09-08T09:38:58;100538.59;;;29.54;100.00
27334;BME280;14817;57.104;-2.094;2023-09-08T09:41:25;100542.19;;;29.49;100.00
27334;BME280;14817;57.104;-2.094;2023-09-08T09:43:52;100546.00;;;28.71;100.00
27334;BME280;14817;57.104;-2.094;2023-09-08T09:46:19;100553.97;;;28.62;100.00
27334;BME280;14817;57.104;-2.094;2023-09-08T09:48:52;100548.53;;;28.83;100.00
27334;BME280;14817;57.104;-2.094;2023-09-08T09:51:20;100543.22;;;27.50;100.00
27334;BME280;14817;57.104;-2.094;2023-09-08T09:53:47;100538.03;;;27.54;100.00
27334;BME280;14817;57.104;-2.094;2023-09-08T09:56:18;100547.41;;;27.58;100.00
27334;BME280;14817;57.104;-2.094;2023-09-08T09:58:46;100555.84;;;27.14;100.00
27334;BME280;14817;57.104;-2.094;2023-09-08T10:01:13;100559.59;;;27.02;100.00
27334;BME280;14817;57.104;-2.094;2023-09-08T10:03:40;100554.34;;;27.28;100.00
27334;BME280;14817;57.104;-2.094;2023-09-08T10:06:07;100548.25;;;26.44;100.00
27334;BME280;14817;57.104;-2.094;2023-09-08T10:08:34;100549.19;;;26.55;100.00
27334;BME280;14817;57.104;-2.094;2023-09-08T10:11:05;100549.69;;;26.52;100.00
27334;BME280;14817;57.104;-2.094;2023-09-08T10:13:38;100550.56;;;26.53;100.00
27334;BME280;14817;57.104;-2.094;2023-09-08T10:16:05;100554.91;;;26.48;100.00
27334;BME280;14817;57.104;-2.094;2023-09-08T10:18:34;100552.78;;;25.90;100.00
27334;BME280;14817;57.104;-2.094;2023-09-08T10:21:03;100554.13;;;25.70;100.00
27334;BME280;14817;57.104;-2.094;2023-09-08T10:23:38;100556.19;;;25.97;100.00
27334;BME280;14817;57.104;-2.094;2023-09-08T10:26:06;100554.00;;;25.43;100.00
27334;BME280;14817;57.104;-2.094;2023-09-08T10:28:36;100549.13;;;25.84;100.00
27334;BME280;14817;57.104;-2.094;2023-09-08T10:31:03;100560.81;;;25.57;100.00
27334;BME280;14817;57.104;-2.094;2023-09-08T10:33:30;100565.38;;;25.52;100.00
27334;BME280;14817;57.104;-2.094;2023-09-08T10:35:58;100564.69;;;25.11;100.00
27334;BME280;14817;57.104;-2.094;2023-09-08T10:38:31;100562.97;;;25.38;100.00
27334;BME280;14817;57.104;-2.094;2023-09-08T10:43:56;100556.09;;;25.07;100.00
27334;BME280;14817;57.104;-2.094;2023-09-08T10:46:25;100559.22;;;25.27;100.00
27334;BME280;14817;57.104;-2.094;2023-09-08T10:48:53;100557.03;;;25.80;100.00
27334;BME280;14817;57.104;-2.094;2023-09-08T10:51:21;100551.53;;;25.41;100.00
27334;BME280;14817;57.104;-2.094;2023-09-08T10:53:49;100551.09;;;26.05;100.00
27334;BME280;14817;57.104;-2.094;2023-09-08T10:56:16;100557.03;;;25.97;100.00
27334;BME280;14817;57.104;-2.094;2023-09-08T10:58:43;100554.19;;;26.58;100.00
27334;BME280;14817;57.104;-2.094;2023-09-08T11:01:18;100556.38;;;26.56;100.00
27334;BME280;14817;57.104;-2.094;2023-09-08T11:03:46;100552.47;;;27.06;100.00
27334;BME280;14817;57.104;-2.094;2023-09-08T11:06:16;100552.59;;;27.54;100.00
27334;BME280;14817;57.104;-2.094;2023-09-08T11:08:49;100552.28;;;26.86;100.00
27334;BME280;14817;57.104;-2.094;2023-09-08T11:11:19;100546.28;;;27.21;100.00
27334;BME280;14817;57.104;-2.094;2023-09-08T11:13:46;100547.00;;;27.39;100.00
27334;BME280;14817;57.104;-2.094;2023-09-08T11:16:14;100544.44;;;28.17;100.00
27334;BME280;14817;57.104;-2.094;2023-09-08T11:18:41;100551.78;;;27.21;100.00
27334;BME280;14817;57.104;-2.094;2023-09-08T11:21:09;100550.34;;;27.14;100.00
27334;BME280;14817;57.104;-2.094;2023-09-08T11:23:36;100542.38;;;27.44;100.00
27334;BME280;14817;57.104;-2.094;2023-09-08T11:26:02;100554.22;;;27.18;100.00
27334;BME280;14817;57.104;-2.094;2023-09-08T11:28:29;100551.94;;;26.77;100.00
27334;BME280;14817;57.104;-2.094;2023-09-08T11:30:57;100549.81;;;27.17;100.00
27334;BME280;14817;57.104;-2.094;2023-09-08T11:33:24;100551.44;;;27.13;100.00
27334;BME280;14817;57.104;-2.094;2023-09-08T11:35:54;100549.25;;;27.15;100.00
27334;BME280;14817;57.104;-2.094;2023-09-08T11:38:28;100546.31;;;26.67;100.00
27334;BME280;14817;57.104;-2.094;2023-09-08T11:40:56;100543.00;;;26.92;100.00
27334;BME280;14817;57.104;-2.094;2023-09-08T11:43:24;100543.53;;;26.89;100.00
27334;BME280;14817;57.104;-2.094;2023-09-08T11:45:51;100535.22;;;26.84;100.00
27334;BME280;14817;57.104;-2.094;2023-09-08T11:48:18;100531.72;;;26.61;100.00
27334;BME280;14817;57.104;-2.094;2023-09-08T11:50:45;100539.38;;;26.59;100.00
27334;BME280;14817;57.104;-2.094;2023-09-08T11:53:12;100529.09;;;27.04;100.00
27334;BME280;14817;57.104;-2.094;2023-09-08T11:55:38;100524.00;;;26.91;100.00
27334;BME280;14817;57.104;-2.094;2023-09-08T11:58:06;100527.97;;;26.73;100.00
27334;BME280;14817;57.104;-2.094;2023-09-08T12:00:33;100525.69;;;26.64;100.00
27334;BME280;14817;57.104;-2.094;2023-09-08T12:03:09;100518.44;;;26.09;100.00
27334;BME280;14817;57.104;-2.094;2023-09-08T12:05:36;100517.47;;;26.42;100.00
27334;BME280;14817;57.104;-2.094;2023-09-08T12:08:03;100524.81;;;26.37;100.00
27334;BME280;14817;57.104;-2.094;2023-09-08T12:10:40;100513.28;;;26.13;100.00
27334;BME280;14817;57.104;-2.094;2023-09-08T12:13:06;100525.91;;;26.14;100.00
27334;BME280;14817;57.104;-2.094;2023-09-08T12:15:34;100520.09;;;26.32;100.00
27334;BME280;14817;57.104;-2.094;2023-09-08T12:18:02;100521.84;;;26.16;100.00
27334;BME280;14817;57.104;-2.094;2023-09-08T12:20:29;100522.28;;;26.08;100.00
27334;BME280;14817;57.104;-2.094;2023-09-08T12:22:58;100524.47;;;26.06;100.00
27334;BME280;14817;57.104;-2.094;2023-09-08T12:25:25;100519.84;;;25.90;100.00
27334;BME280;14817;57.104;-2.094;2023-09-08T12:27:54;100519.66;;;25.96;100.00
27334;BME280;14817;57.104;-2.094;2023-09-08T12:30:22;100521.06;;;25.60;100.00
27334;BME280;14817;57.104;-2.094;2023-09-08T12:32:51;100525.94;;;25.75;100.00
27334;BME280;14817;57.104;-2.094;2023-09-08T12:35:21;100524.59;;;26.16;100.00
27334;BME280;14817;57.104;-2.094;2023-09-08T12:38:07;100528.63;;;25.70;100.00
27334;BME280;14817;57.104;-2.094;2023-09-08T12:40:35;100528.81;;;25.85;100.00